sensor_id;sensor_type;location;lat;lon;timestamp;pressure;altitude;pressure_sealevel;temperature;humidity
21011;BME280;10663;42.714;23.274;2022-10-16T00:00:52;95441.13;;;8.61;91.25
21011;BME280;10663;42.714;23.274;2022-10-16T00:02:23;95440.69;;;8.53;90.30
21011;BME280;10663;42.714;23.274;2022-10-16T00:03:55;95436.78;;;8.44;90.20
21011;BME280;10663;42.714;23.274;2022-10-16T00:05:27;95446.91;;;8.35;90.51
21011;BME280;10663;42.714;23.274;2022-10-16T00:06:58;95453.31;;;8.39;89.93
21011;BME280;10663;42.714;23.274;2022-10-16T00:08:29;95444.72;;;8.44;89.66
21011;BME280;10663;42.714;23.274;2022-10-16T00:10:00;95441.56;;;8.58;89.80
21011;BME280;10663;42.714;23.274;2022-10-16T00:11:33;95450.66;;;8.51;88.75
21011;BME280;10663;42.714;23.274;2022-10-16T00:13:07;95450.31;;;8.47;89.35
21011;BME280;10663;42.714;23.274;2022-10-16T00:14:38;95450.00;;;8.44;89.38
21011;BME280;10663;42.714;23.274;2022-10-16T00:16:13;95445.28;;;8.46;89.28
21011;BME280;10663;42.714;23.274;2022-10-16T00:17:44;95450.88;;;8.49;88.58
21011;BME280;10663;42.714;23.274;2022-10-16T00:19:15;95453.78;;;8.24;87.24
21011;BME280;10663;42.714;23.274;2022-10-16T00:20:46;95453.44;;;7.98;88.33
21011;BME280;10663;42.714;23.274;2022-10-16T00:22:35;95458.84;;;7.91;89.63
21011;BME280;10663;42.714;23.274;2022-10-16T00:24:08;95453.66;;;7.96;89.79
21011;BME280;10663;42.714;23.274;2022-10-16T00:25:39;95460.31;;;7.99;89.83
21011;BME280;10663;42.714;23.274;2022-10-16T00:27:10;95458.69;;;7.86;89.80
21011;BME280;10663;42.714;23.274;2022-10-16T00:28:41;95470.72;;;7.70;90.12
21011;BME280;10663;42.714;23.274;2022-10-16T00:30:12;95465.91;;;7.56;91.16
21011;BME280;10663;42.714;23.274;2022-10-16T00:31:43;95467.13;;;7.41;91.85
21011;BME280;10663;42.714;23.274;2022-10-16T00:33:14;95461.63;;;7.43;92.95
21011;BME280;10663;42.714;23.274;2022-10-16T00:34:45;95463.47;;;7.42;93.77
21011;BME280;10663;42.714;23.274;2022-10-16T00:36:18;95471.38;;;7.42;94.04
21011;BME280;10663;42.714;23.274;2022-10-16T00:37:49;95467.25;;;7.46;93.79
21011;BME280;10663;42.714;23.274;2022-10-16T00:39:20;95473.44;;;7.52;93.53
21011;BME280;10663;42.714;23.274;2022-10-16T00:40:52;95465.69;;;7.69;93.30
21011;BME280;10663;42.714;23.274;2022-10-16T00:42:22;95464.09;;;7.79;92.86
21011;BME280;10663;42.714;23.274;2022-10-16T00:43:58;95466.03;;;7.96;92.09
21011;BME280;10663;42.714;23.274;2022-10-16T00:45:29;95458.50;;;7.99;91.25
21011;BME280;10663;42.714;23.274;2022-10-16T00:47:00;95457.91;;;7.97;90.83
21011;BME280;10663;42.714;23.274;2022-10-16T00:48:31;95461.59;;;8.08;90.15
21011;BME280;10663;42.714;23.274;2022-10-16T00:50:32;95458.25;;;8.12;90.40
21011;BME280;10663;42.714;23.274;2022-10-16T00:52:03;95450.56;;;8.11;90.24
21011;BME280;10663;42.714;23.274;2022-10-16T00:53:36;95462.50;;;8.13;90.69
21011;BME280;10663;42.714;23.274;2022-10-16T00:55:08;95453.91;;;8.18;90.19
21011;BME280;10663;42.714;23.274;2022-10-16T00:56:40;95448.72;;;8.11;89.87
21011;BME280;10663;42.714;23.274;2022-10-16T00:58:11;95457.34;;;8.07;91.03
21011;BME280;10663;42.714;23.274;2022-10-16T00:59:43;95457.13;;;8.08;90.12
21011;BME280;10663;42.714;23.274;2022-10-16T01:01:14;95455.03;;;8.10;90.44
21011;BME280;10663;42.714;23.274;2022-10-16T01:03:00;95454.13;;;8.16;90.08
21011;BME280;10663;42.714;23.274;2022-10-16T01:04:37;95459.13;;;8.30;90.06
21011;BME280;10663;42.714;23.274;2022-10-16T01:08:10;95461.69;;;8.24;89.05
21011;BME280;10663;42.714;23.274;2022-10-16T01:10:13;95464.44;;;8.18;90.19
21011;BME280;10663;42.714;23.274;2022-10-16T01:13:28;95467.31;;;8.16;89.86
21011;BME280;10663;42.714;23.274;2022-10-16T01:15:15;95470.31;;;8.08;90.94
21011;BME280;10663;42.714;23.274;2022-10-16T01:16:58;95468.56;;;8.25;90.68
21011;BME280;10663;42.714;23.274;2022-10-16T01:18:47;95470.97;;;8.27;90.35
21011;BME280;10663;42.714;23.274;2022-10-16T01:22:06;95458.72;;;8.09;90.57
21011;BME280;10663;42.714;23.274;2022-10-16T01:25:53;95455.81;;;8.11;90.69
21011;BME280;10663;42.714;23.274;2022-10-16T01:27:30;95451.84;;;7.97;91.14
21011;BME280;10663;42.714;23.274;2022-10-16T01:29:36;95451.94;;;7.90;91.86
21011;BME280;10663;42.714;23.274;2022-10-16T01:31:09;95451.72;;;8.03;91.77
21011;BME280;10663;42.714;23.274;2022-10-16T01:33:05;95453.09;;;8.06;92.19
21011;BME280;10663;42.714;23.274;2022-10-16T01:34:52;95453.44;;;7.98;92.29
21011;BME280;10663;42.714;23.274;2022-10-16T01:36:35;95454.25;;;7.98;92.36
21011;BME280;10663;42.714;23.274;2022-10-16T01:38:16;95460.66;;;7.79;92.56
21011;BME280;10663;42.714;23.274;2022-10-16T01:39:49;95462.25;;;7.68;92.96
21011;BME280;10663;42.714;23.274;2022-10-16T01:41:26;95462.81;;;7.70;94.36
21011;BME280;10663;42.714;23.274;2022-10-16T01:43:14;95457.91;;;7.85;93.11
21011;BME280;10663;42.714;23.274;2022-10-16T01:44:47;95459.75;;;7.73;92.81
21011;BME280;10663;42.714;23.274;2022-10-16T01:46:20;95467.25;;;7.58;92.76
21011;BME280;10663;42.714;23.274;2022-10-16T01:47:51;95469.31;;;7.44;93.43
21011;BME280;10663;42.714;23.274;2022-10-16T01:49:26;95468.03;;;7.35;92.63
21011;BME280;10663;42.714;23.274;2022-10-16T01:51:05;95473.75;;;7.32;93.15
21011;BME280;10663;42.714;23.274;2022-10-16T01:52:41;95470.19;;;7.38;94.33
21011;BME280;10663;42.714;23.274;2022-10-16T01:54:14;95470.84;;;7.22;94.01
21011;BME280;10663;42.714;23.274;2022-10-16T01:55:47;95475.44;;;7.27;93.57
21011;BME280;10663;42.714;23.274;2022-10-16T01:57:21;95476.81;;;7.29;92.39
21011;BME280;10663;42.714;23.274;2022-10-16T01:58:57;95478.09;;;7.27;93.15
21011;BME280;10663;42.714;23.274;2022-10-16T02:00:30;95480.06;;;7.43;92.50
21011;BME280;10663;42.714;23.274;2022-10-16T02:02:06;95477.22;;;7.44;91.42
21011;BME280;10663;42.714;23.274;2022-10-16T02:03:40;95478.75;;;7.22;91.36
21011;BME280;10663;42.714;23.274;2022-10-16T02:05:41;95480.28;;;7.00;93.81
21011;BME280;10663;42.714;23.274;2022-10-16T02:07:13;95483.66;;;6.89;94.75
21011;BME280;10663;42.714;23.274;2022-10-16T02:08:45;95485.41;;;6.76;95.00
21011;BME280;10663;42.714;23.274;2022-10-16T02:10:16;95491.56;;;6.70;96.40
21011;BME280;10663;42.714;23.274;2022-10-16T02:11:47;95483.53;;;6.65;96.42
21011;BME280;10663;42.714;23.274;2022-10-16T02:13:28;95492.69;;;6.63;97.48
21011;BME280;10663;42.714;23.274;2022-10-16T02:15:00;95489.75;;;6.53;97.86
21011;BME280;10663;42.714;23.274;2022-10-16T02:16:37;95502.69;;;6.54;97.93
21011;BME280;10663;42.714;23.274;2022-10-16T02:18:09;95498.50;;;6.65;97.70
21011;BME280;10663;42.714;23.274;2022-10-16T02:19:41;95500.13;;;6.66;98.02
21011;BME280;10663;42.714;23.274;2022-10-16T02:21:20;95498.16;;;6.61;97.70
21011;BME280;10663;42.714;23.274;2022-10-16T02:22:54;95497.88;;;6.51;99.32
21011;BME280;10663;42.714;23.274;2022-10-16T02:24:33;95501.69;;;6.55;98.88
21011;BME280;10663;42.714;23.274;2022-10-16T02:26:13;95504.16;;;6.50;99.56
21011;BME280;10663;42.714;23.274;2022-10-16T02:29:38;95503.13;;;6.33;100.00
21011;BME280;10663;42.714;23.274;2022-10-16T02:31:13;95519.41;;;6.42;100.00
21011;BME280;10663;42.714;23.274;2022-10-16T02:32:46;95512.75;;;6.39;99.99
21011;BME280;10663;42.714;23.274;2022-10-16T02:34:20;95510.13;;;6.39;99.74
21011;BME280;10663;42.714;23.274;2022-10-16T02:35:53;95506.63;;;6.27;99.53
21011;BME280;10663;42.714;23.274;2022-10-16T02:37:25;95508.88;;;6.23;99.81
21011;BME280;10663;42.714;23.274;2022-10-16T02:38:57;95506.69;;;6.38;99.22
21011;BME280;10663;42.714;23.274;2022-10-16T02:40:30;95502.38;;;6.26;98.37
21011;BME280;10663;42.714;23.274;2022-10-16T02:42:02;95509.47;;;6.25;98.12
21011;BME280;10663;42.714;23.274;2022-10-16T02:43:33;95515.97;;;6.23;98.00
21011;BME280;10663;42.714;23.274;2022-10-16T02:45:08;95511.78;;;6.15;98.54
21011;BME280;10663;42.714;23.274;2022-10-16T02:46:39;95513.03;;;6.13;98.98
21011;BME280;10663;42.714;23.274;2022-10-16T02:48:10;95518.09;;;6.51;98.96
21011;BME280;10663;42.714;23.274;2022-10-16T02:49:41;95523.59;;;6.49;97.61
21011;BME280;10663;42.714;23.274;2022-10-16T02:51:12;95519.34;;;6.66;96.91
21011;BME280;10663;42.714;23.274;2022-10-16T02:52:43;95525.34;;;6.73;95.93
21011;BME280;10663;42.714;23.274;2022-10-16T02:54:14;95520.31;;;6.90;95.47
21011;BME280;10663;42.714;23.274;2022-10-16T02:55:44;95524.16;;;7.06;93.78
21011;BME280;10663;42.714;23.274;2022-10-16T02:57:15;95527.38;;;7.08;92.72
21011;BME280;10663;42.714;23.274;2022-10-16T02:58:46;95523.94;;;7.07;92.59
21011;BME280;10663;42.714;23.274;2022-10-16T03:00:17;95523.63;;;7.16;92.61
21011;BME280;10663;42.714;23.274;2022-10-16T03:01:48;95526.34;;;7.09;92.27
21011;BME280;10663;42.714;23.274;2022-10-16T03:03:19;95527.19;;;7.21;92.88
21011;BME280;10663;42.714;23.274;2022-10-16T03:04:50;95526.88;;;7.29;92.62
21011;BME280;10663;42.714;23.274;2022-10-16T03:06:21;95535.53;;;7.18;92.61
21011;BME280;10663;42.714;23.274;2022-10-16T03:07:52;95532.81;;;7.25;92.49
21011;BME280;10663;42.714;23.274;2022-10-16T03:09:23;95525.97;;;7.05;92.25
21011;BME280;10663;42.714;23.274;2022-10-16T03:10:54;95532.38;;;6.80;92.96
21011;BME280;10663;42.714;23.274;2022-10-16T03:12:24;95527.03;;;6.68;94.76
21011;BME280;10663;42.714;23.274;2022-10-16T03:13:55;95531.63;;;6.54;95.51
21011;BME280;10663;42.714;23.274;2022-10-16T03:15:26;95536.63;;;6.62;96.00
21011;BME280;10663;42.714;23.274;2022-10-16T03:16:58;95522.66;;;6.80;95.82
21011;BME280;10663;42.714;23.274;2022-10-16T03:18:29;95525.72;;;6.77;95.59
21011;BME280;10663;42.714;23.274;2022-10-16T03:20:00;95521.34;;;6.71;95.94
21011;BME280;10663;42.714;23.274;2022-10-16T03:21:32;95528.13;;;6.79;96.36
21011;BME280;10663;42.714;23.274;2022-10-16T03:23:03;95526.69;;;6.83;95.45
21011;BME280;10663;42.714;23.274;2022-10-16T03:24:34;95530.69;;;6.67;95.19
21011;BME280;10663;42.714;23.274;2022-10-16T03:26:05;95540.97;;;6.50;96.42
21011;BME280;10663;42.714;23.274;2022-10-16T03:27:35;95534.28;;;6.29;96.85
21011;BME280;10663;42.714;23.274;2022-10-16T03:29:07;95539.50;;;6.18;97.05
21011;BME280;10663;42.714;23.274;2022-10-16T03:30:38;95538.28;;;6.14;97.96
21011;BME280;10663;42.714;23.274;2022-10-16T03:32:10;95535.06;;;6.12;98.96
21011;BME280;10663;42.714;23.274;2022-10-16T03:33:41;95548.50;;;6.04;96.75
21011;BME280;10663;42.714;23.274;2022-10-16T03:35:12;95540.59;;;6.04;96.59
21011;BME280;10663;42.714;23.274;2022-10-16T03:36:43;95536.84;;;6.18;95.40
21011;BME280;10663;42.714;23.274;2022-10-16T03:38:13;95537.72;;;6.30;94.64
21011;BME280;10663;42.714;23.274;2022-10-16T03:39:44;95532.34;;;6.25;94.26
21011;BME280;10663;42.714;23.274;2022-10-16T03:41:15;95543.00;;;6.30;93.43
21011;BME280;10663;42.714;23.274;2022-10-16T03:42:46;95533.81;;;6.39;93.50
21011;BME280;10663;42.714;23.274;2022-10-16T03:44:17;95541.13;;;6.37;93.03
21011;BME280;10663;42.714;23.274;2022-10-16T03:45:50;95535.59;;;6.45;93.82
21011;BME280;10663;42.714;23.274;2022-10-16T03:47:22;95535.28;;;6.35;93.28
21011;BME280;10663;42.714;23.274;2022-10-16T03:48:54;95535.59;;;6.45;93.22
21011;BME280;10663;42.714;23.274;2022-10-16T03:50:24;95533.50;;;6.47;93.29
21011;BME280;10663;42.714;23.274;2022-10-16T03:51:55;95535.63;;;6.38;93.94
21011;BME280;10663;42.714;23.274;2022-10-16T03:53:26;95533.97;;;6.44;94.71
21011;BME280;10663;42.714;23.274;2022-10-16T03:54:57;95533.59;;;6.41;94.26
21011;BME280;10663;42.714;23.274;2022-10-16T03:56:28;95531.03;;;6.34;94.13
21011;BME280;10663;42.714;23.274;2022-10-16T03:57:59;95532.16;;;6.45;94.25
21011;BME280;10663;42.714;23.274;2022-10-16T03:59:29;95535.72;;;6.50;92.54
21011;BME280;10663;42.714;23.274;2022-10-16T04:01:00;95537.25;;;6.39;92.24
21011;BME280;10663;42.714;23.274;2022-10-16T04:02:31;95537.00;;;6.23;91.75
21011;BME280;10663;42.714;23.274;2022-10-16T04:04:02;95532.81;;;6.15;92.34
21011;BME280;10663;42.714;23.274;2022-10-16T04:05:33;95536.38;;;6.03;92.92
21011;BME280;10663;42.714;23.274;2022-10-16T04:07:04;95534.66;;;5.83;93.77
21011;BME280;10663;42.714;23.274;2022-10-16T04:08:35;95533.38;;;5.68;94.73
21011;BME280;10663;42.714;23.274;2022-10-16T04:10:07;95536.31;;;5.53;96.15
21011;BME280;10663;42.714;23.274;2022-10-16T04:11:38;95536.34;;;5.46;97.47
21011;BME280;10663;42.714;23.274;2022-10-16T04:13:09;95535.78;;;5.38;98.40
21011;BME280;10663;42.714;23.274;2022-10-16T04:14:40;95541.50;;;5.35;99.53
21011;BME280;10663;42.714;23.274;2022-10-16T04:16:11;95537.63;;;5.37;100.00
21011;BME280;10663;42.714;23.274;2022-10-16T04:17:42;95538.06;;;5.34;100.00
21011;BME280;10663;42.714;23.274;2022-10-16T04:19:13;95529.16;;;5.35;100.00
21011;BME280;10663;42.714;23.274;2022-10-16T04:20:44;95537.44;;;5.32;100.00
21011;BME280;10663;42.714;23.274;2022-10-16T04:22:15;95539.28;;;5.32;100.00
21011;BME280;10663;42.714;23.274;2022-10-16T04:23:46;95538.47;;;5.31;100.00
21011;BME280;10663;42.714;23.274;2022-10-16T04:25:16;95536.22;;;5.35;100.00
21011;BME280;10663;42.714;23.274;2022-10-16T04:26:47;95539.47;;;5.37;100.00
21011;BME280;10663;42.714;23.274;2022-10-16T04:28:18;95538.47;;;5.31;100.00
21011;BME280;10663;42.714;23.274;2022-10-16T04:29:49;95541.69;;;5.33;100.00
21011;BME280;10663;42.714;23.274;2022-10-16T04:31:20;95554.00;;;5.33;100.00
21011;BME280;10663;42.714;23.274;2022-10-16T04:32:52;95546.34;;;5.31;100.00
21011;BME280;10663;42.714;23.274;2022-10-16T04:34:23;95552.81;;;5.35;100.00
21011;BME280;10663;42.714;23.274;2022-10-16T04:35:58;95543.59;;;5.51;100.00
21011;BME280;10663;42.714;23.274;2022-10-16T04:37:29;95545.19;;;5.83;100.00
21011;BME280;10663;42.714;23.274;2022-10-16T04:38:59;95543.75;;;6.12;100.00
21011;BME280;10663;42.714;23.274;2022-10-16T04:40:30;95556.75;;;6.32;100.00
21011;BME280;10663;42.714;23.274;2022-10-16T04:42:07;95552.28;;;6.32;100.00
21011;BME280;10663;42.714;23.274;2022-10-16T04:43:37;95553.50;;;6.30;99.56
21011;BME280;10663;42.714;23.274;2022-10-16T04:45:08;95556.34;;;6.28;99.90
21011;BME280;10663;42.714;23.274;2022-10-16T04:46:39;95562.59;;;6.34;99.23
21011;BME280;10663;42.714;23.274;2022-10-16T04:48:10;95556.00;;;6.25;97.04
21011;BME280;10663;42.714;23.274;2022-10-16T04:49:41;95560.78;;;6.34;98.69
21011;BME280;10663;42.714;23.274;2022-10-16T04:51:12;95560.38;;;6.31;96.44
21011;BME280;10663;42.714;23.274;2022-10-16T04:52:43;95558.66;;;6.43;95.86
21011;BME280;10663;42.714;23.274;2022-10-16T04:54:14;95572.44;;;6.38;94.09
21011;BME280;10663;42.714;23.274;2022-10-16T04:55:45;95568.59;;;6.41;93.09
21011;BME280;10663;42.714;23.274;2022-10-16T04:57:16;95568.81;;;6.58;92.31
21011;BME280;10663;42.714;23.274;2022-10-16T04:58:47;95570.22;;;6.60;92.21
21011;BME280;10663;42.714;23.274;2022-10-16T05:00:18;95574.19;;;6.88;91.19
21011;BME280;10663;42.714;23.274;2022-10-16T05:01:49;95579.06;;;6.84;92.31
21011;BME280;10663;42.714;23.274;2022-10-16T05:03:20;95576.22;;;6.86;91.91
21011;BME280;10663;42.714;23.274;2022-10-16T05:04:51;95581.94;;;6.83;91.34
21011;BME280;10663;42.714;23.274;2022-10-16T05:06:22;95579.38;;;6.76;91.50
21011;BME280;10663;42.714;23.274;2022-10-16T05:07:53;95576.69;;;6.83;92.63
21011;BME280;10663;42.714;23.274;2022-10-16T05:09:24;95582.59;;;6.78;92.34
21011;BME280;10663;42.714;23.274;2022-10-16T05:10:55;95585.16;;;6.85;92.69
21011;BME280;10663;42.714;23.274;2022-10-16T05:12:26;95582.31;;;6.86;92.37
21011;BME280;10663;42.714;23.274;2022-10-16T05:13:57;95585.44;;;6.95;91.49
21011;BME280;10663;42.714;23.274;2022-10-16T05:15:28;95589.25;;;6.99;91.75
21011;BME280;10663;42.714;23.274;2022-10-16T05:16:59;95584.63;;;6.76;91.07
21011;BME280;10663;42.714;23.274;2022-10-16T05:18:30;95589.09;;;6.75;91.37
21011;BME280;10663;42.714;23.274;2022-10-16T05:20:02;95583.19;;;6.80;92.09
21011;BME280;10663;42.714;23.274;2022-10-16T05:21:33;95585.22;;;6.78;91.62
21011;BME280;10663;42.714;23.274;2022-10-16T05:23:04;95586.16;;;6.84;90.81
21011;BME280;10663;42.714;23.274;2022-10-16T05:24:35;95589.84;;;6.83;90.54
21011;BME280;10663;42.714;23.274;2022-10-16T05:26:06;95590.72;;;6.95;89.94
21011;BME280;10663;42.714;23.274;2022-10-16T05:27:37;95586.69;;;6.92;89.18
21011;BME280;10663;42.714;23.274;2022-10-16T05:29:08;95595.69;;;6.85;88.98
21011;BME280;10663;42.714;23.274;2022-10-16T05:30:40;95592.53;;;6.94;89.85
21011;BME280;10663;42.714;23.274;2022-10-16T05:32:10;95596.13;;;7.00;89.92
21011;BME280;10663;42.714;23.274;2022-10-16T05:33:42;95593.63;;;6.87;90.11
21011;BME280;10663;42.714;23.274;2022-10-16T05:35:16;95608.53;;;6.93;89.75
21011;BME280;10663;42.714;23.274;2022-10-16T05:36:47;95604.25;;;6.98;89.15
21011;BME280;10663;42.714;23.274;2022-10-16T05:38:18;95600.31;;;6.89;89.35
21011;BME280;10663;42.714;23.274;2022-10-16T05:39:48;95598.78;;;7.00;89.13
21011;BME280;10663;42.714;23.274;2022-10-16T05:41:20;95603.97;;;7.06;89.18
21011;BME280;10663;42.714;23.274;2022-10-16T05:42:55;95603.06;;;7.12;89.37
21011;BME280;10663;42.714;23.274;2022-10-16T05:44:26;95603.25;;;7.29;89.11
21011;BME280;10663;42.714;23.274;2022-10-16T05:45:59;95609.50;;;7.35;88.27
21011;BME280;10663;42.714;23.274;2022-10-16T05:47:30;95610.06;;;7.55;88.04
21011;BME280;10663;42.714;23.274;2022-10-16T05:49:01;95603.44;;;7.64;88.03
21011;BME280;10663;42.714;23.274;2022-10-16T05:50:32;95602.75;;;7.69;88.10
21011;BME280;10663;42.714;23.274;2022-10-16T05:52:03;95612.72;;;7.67;88.21
21011;BME280;10663;42.714;23.274;2022-10-16T05:53:36;95615.13;;;7.68;87.53
21011;BME280;10663;42.714;23.274;2022-10-16T05:55:07;95615.75;;;7.52;87.93
21011;BME280;10663;42.714;23.274;2022-10-16T05:56:38;95615.56;;;7.65;88.47
21011;BME280;10663;42.714;23.274;2022-10-16T05:58:11;95631.59;;;7.82;88.04
21011;BME280;10663;42.714;23.274;2022-10-16T05:59:42;95610.50;;;7.94;87.21
21011;BME280;10663;42.714;23.274;2022-10-16T06:01:16;95617.41;;;7.95;86.96
21011;BME280;10663;42.714;23.274;2022-10-16T06:02:47;95620.28;;;8.05;86.62
21011;BME280;10663;42.714;23.274;2022-10-16T06:04:18;95623.06;;;8.10;86.51
21011;BME280;10663;42.714;23.274;2022-10-16T06:05:49;95627.75;;;8.19;87.37
21011;BME280;10663;42.714;23.274;2022-10-16T06:07:21;95633.19;;;8.24;86.83
21011;BME280;10663;42.714;23.274;2022-10-16T06:08:54;95632.44;;;8.36;86.23
21011;BME280;10663;42.714;23.274;2022-10-16T06:10:25;95638.53;;;8.36;85.17
21011;BME280;10663;42.714;23.274;2022-10-16T06:11:56;95637.72;;;8.47;85.29
21011;BME280;10663;42.714;23.274;2022-10-16T06:13:27;95646.00;;;8.51;85.79
21011;BME280;10663;42.714;23.274;2022-10-16T06:14:57;95636.78;;;8.42;85.76
21011;BME280;10663;42.714;23.274;2022-10-16T06:16:29;95641.63;;;8.45;85.76
21011;BME280;10663;42.714;23.274;2022-10-16T06:18:00;95631.88;;;8.57;84.63
21011;BME280;10663;42.714;23.274;2022-10-16T06:19:31;95639.53;;;8.47;85.90
21011;BME280;10663;42.714;23.274;2022-10-16T06:21:08;95641.63;;;8.56;85.39
21011;BME280;10663;42.714;23.274;2022-10-16T06:22:39;95640.72;;;8.62;84.42
21011;BME280;10663;42.714;23.274;2022-10-16T06:24:10;95644.41;;;8.73;85.15
21011;BME280;10663;42.714;23.274;2022-10-16T06:25:41;95640.94;;;8.84;83.58
21011;BME280;10663;42.714;23.274;2022-10-16T06:27:11;95643.59;;;8.84;84.54
21011;BME280;10663;42.714;23.274;2022-10-16T06:28:43;95647.47;;;8.93;83.85
21011;BME280;10663;42.714;23.274;2022-10-16T06:30:14;95651.63;;;8.89;83.29
21011;BME280;10663;42.714;23.274;2022-10-16T06:31:45;95652.22;;;8.91;83.70
21011;BME280;10663;42.714;23.274;2022-10-16T06:33:15;95655.66;;;8.92;83.54
21011;BME280;10663;42.714;23.274;2022-10-16T06:34:46;95652.78;;;8.70;84.04
21011;BME280;10663;42.714;23.274;2022-10-16T06:36:17;95655.06;;;8.78;83.81
21011;BME280;10663;42.714;23.274;2022-10-16T06:37:48;95653.03;;;8.92;83.95
21011;BME280;10663;42.714;23.274;2022-10-16T06:39:19;95656.56;;;8.97;83.50
21011;BME280;10663;42.714;23.274;2022-10-16T06:40:50;95659.31;;;9.02;83.54
21011;BME280;10663;42.714;23.274;2022-10-16T06:42:21;95652.09;;;8.98;83.15
21011;BME280;10663;42.714;23.274;2022-10-16T06:43:51;95656.69;;;8.79;83.89
21011;BME280;10663;42.714;23.274;2022-10-16T06:45:22;95666.44;;;8.90;84.02
21011;BME280;10663;42.714;23.274;2022-10-16T06:46:54;95664.72;;;8.96;83.54
21011;BME280;10663;42.714;23.274;2022-10-16T06:48:25;95666.44;;;8.90;83.46
21011;BME280;10663;42.714;23.274;2022-10-16T06:49:56;95670.34;;;8.99;83.88
21011;BME280;10663;42.714;23.274;2022-10-16T06:51:26;95673.44;;;8.85;84.00
21011;BME280;10663;42.714;23.274;2022-10-16T06:52:57;95675.41;;;8.89;83.60
21011;BME280;10663;42.714;23.274;2022-10-16T06:54:29;95673.31;;;9.15;84.40
21011;BME280;10663;42.714;23.274;2022-10-16T06:56:11;95673.41;;;9.20;83.32
21011;BME280;10663;42.714;23.274;2022-10-16T06:57:43;95676.31;;;9.18;82.73
21011;BME280;10663;42.714;23.274;2022-10-16T06:59:14;95679.88;;;9.12;83.12
21011;BME280;10663;42.714;23.274;2022-10-16T07:00:45;95680.22;;;9.16;83.17
21011;BME280;10663;42.714;23.274;2022-10-16T07:02:16;95677.44;;;9.22;83.14
21011;BME280;10663;42.714;23.274;2022-10-16T07:03:47;95682.06;;;9.27;83.31
21011;BME280;10663;42.714;23.274;2022-10-16T07:05:18;95685.06;;;9.19;82.56
21011;BME280;10663;42.714;23.274;2022-10-16T07:06:49;95680.06;;;9.46;82.26
21011;BME280;10663;42.714;23.274;2022-10-16T07:08:22;95684.41;;;9.63;81.18
21011;BME280;10663;42.714;23.274;2022-10-16T07:09:52;95690.06;;;9.55;82.89
21011;BME280;10663;42.714;23.274;2022-10-16T07:11:24;95689.84;;;9.33;82.03
21011;BME280;10663;42.714;23.274;2022-10-16T07:12:55;95685.09;;;9.59;82.49
21011;BME280;10663;42.714;23.274;2022-10-16T07:14:26;95688.53;;;9.59;80.96
21011;BME280;10663;42.714;23.274;2022-10-16T07:15:57;95688.88;;;9.63;80.63
21011;BME280;10663;42.714;23.274;2022-10-16T07:17:28;95690.44;;;9.75;80.32
21011;BME280;10663;42.714;23.274;2022-10-16T07:19:01;95685.03;;;9.82;80.27
21011;BME280;10663;42.714;23.274;2022-10-16T07:20:32;95689.69;;;9.63;81.02
21011;BME280;10663;42.714;23.274;2022-10-16T07:22:03;95688.88;;;9.63;80.70
21011;BME280;10663;42.714;23.274;2022-10-16T07:23:34;95686.25;;;9.63;81.09
21011;BME280;10663;42.714;23.274;2022-10-16T07:25:05;95685.28;;;9.69;81.30
21011;BME280;10663;42.714;23.274;2022-10-16T07:26:37;95688.56;;;9.88;80.92
21011;BME280;10663;42.714;23.274;2022-10-16T07:28:09;95682.13;;;9.84;80.70
21011;BME280;10663;42.714;23.274;2022-10-16T07:29:40;95691.69;;;9.85;80.29
21011;BME280;10663;42.714;23.274;2022-10-16T07:31:13;95689.84;;;10.13;79.32
21011;BME280;10663;42.714;23.274;2022-10-16T07:32:44;95691.94;;;9.83;80.53
21011;BME280;10663;42.714;23.274;2022-10-16T07:34:16;95685.03;;;9.82;80.38
21011;BME280;10663;42.714;23.274;2022-10-16T07:35:52;95690.66;;;10.14;79.41
21011;BME280;10663;42.714;23.274;2022-10-16T07:37:23;95692.06;;;10.05;79.61
21011;BME280;10663;42.714;23.274;2022-10-16T07:38:55;95694.03;;;9.69;80.78
21011;BME280;10663;42.714;23.274;2022-10-16T07:40:25;95689.03;;;10.13;79.85
21011;BME280;10663;42.714;23.274;2022-10-16T07:41:57;95686.31;;;10.08;79.13
21011;BME280;10663;42.714;23.274;2022-10-16T07:43:29;95687.44;;;10.40;78.53
21011;BME280;10663;42.714;23.274;2022-10-16T07:45:00;95690.41;;;10.44;78.12
21011;BME280;10663;42.714;23.274;2022-10-16T07:46:31;95688.25;;;10.74;78.47
21011;BME280;10663;42.714;23.274;2022-10-16T07:48:04;95684.41;;;10.65;77.05
21011;BME280;10663;42.714;23.274;2022-10-16T07:49:35;95683.06;;;10.63;77.20
21011;BME280;10663;42.714;23.274;2022-10-16T07:51:06;95681.78;;;10.82;76.13
21011;BME280;10663;42.714;23.274;2022-10-16T07:52:37;95687.47;;;10.74;76.23
21011;BME280;10663;42.714;23.274;2022-10-16T07:54:09;95692.34;;;10.65;76.30
21011;BME280;10663;42.714;23.274;2022-10-16T07:55:40;95693.56;;;10.58;76.79
21011;BME280;10663;42.714;23.274;2022-10-16T07:57:11;95692.78;;;10.91;76.83
21011;BME280;10663;42.714;23.274;2022-10-16T07:58:42;95696.78;;;11.10;75.91
21011;BME280;10663;42.714;23.274;2022-10-16T08:00:13;95692.91;;;10.84;76.15
21011;BME280;10663;42.714;23.274;2022-10-16T08:01:44;95694.84;;;10.88;75.91
21011;BME280;10663;42.714;23.274;2022-10-16T08:03:15;95700.78;;;10.79;76.33
21011;BME280;10663;42.714;23.274;2022-10-16T08:04:46;95695.31;;;11.19;75.58
21011;BME280;10663;42.714;23.274;2022-10-16T08:06:19;95692.44;;;11.42;74.63
21011;BME280;10663;42.714;23.274;2022-10-16T08:07:50;95694.91;;;11.49;74.00
21011;BME280;10663;42.714;23.274;2022-10-16T08:09:21;95699.38;;;11.65;73.86
21011;BME280;10663;42.714;23.274;2022-10-16T08:10:52;95697.69;;;11.59;73.42
21011;BME280;10663;42.714;23.274;2022-10-16T08:12:23;95692.75;;;11.68;73.67
21011;BME280;10663;42.714;23.274;2022-10-16T08:13:54;95702.97;;;11.76;73.26
21011;BME280;10663;42.714;23.274;2022-10-16T08:15:25;95695.81;;;11.76;72.77
21011;BME280;10663;42.714;23.274;2022-10-16T08:16:56;95689.16;;;11.95;72.38
21011;BME280;10663;42.714;23.274;2022-10-16T08:18:27;95690.34;;;11.83;72.20